Time;durP1;ratioP1;P1;durP2;ratioP2;P2;SDS_P1;SDS_P2;PMS_P1;PMS_P2;Temp;Humidity;BMP_temperature;BMP_pressure;BME280_temperature;BME280_humidity;BME280_pressure;Samples;Min_cycle;Max_cycle;Signal;HPM_P1;HPM_P2
2021/12/07 00:02:00;;;;;;;48.20;18.63;;;2.40;99.90;;;;;;5115361;28;20187;-76
2021/12/07 00:04:26;;;;;;;43.00;17.10;;;2.20;99.90;;;;;;5115245;28;20044;-76
2021/12/07 00:06:52;;;;;;;42.67;15.88;;;2.20;99.90;;;;;;5115313;28;20043;-76
2021/12/07 00:09:18;;;;;;;49.30;17.95;;;2.10;99.90;;;;;;5115058;28;20508;-76
2021/12/07 00:11:46;;;;;;;45.60;16.90;;;2.20;99.90;;;;;;5115941;28;20132;-76
2021/12/07 00:14:14;;;;;;;44.55;17.27;;;2.20;99.90;;;;;;5115317;28;20150;-74
2021/12/07 00:16:43;;;;;;;47.15;16.15;;;2.10;99.90;;;;;;5116272;28;20205;-74
2021/12/07 00:19:09;;;;;;;39.78;15.15;;;2.10;99.90;;;;;;5115238;28;20210;-77
2021/12/07 00:21:37;;;;;;;40.45;15.05;;;2.00;99.90;;;;;;5096944;28;20047;-77
2021/12/07 00:24:04;;;;;;;42.67;15.98;;;2.00;99.90;;;;;;5096503;28;20047;-76
2021/12/07 00:26:30;;;;;;;40.25;15.23;;;1.90;99.90;;;;;;5114875;28;20548;-75
2021/12/07 00:28:56;;;;;;;39.33;14.20;;;1.90;99.90;;;;;;5114882;28;20048;-76
2021/12/07 00:31:29;;;;;;;41.27;14.70;;;1.80;99.90;;;;;;5115002;28;20040;-76
2021/12/07 00:34:20;;;;;;;39.85;15.18;;;1.70;99.90;;;;;;5114793;28;20043;-77
2021/12/07 00:36:47;;;;;;;38.25;14.65;;;1.60;99.90;;;;;;5097115;28;20044;-77
2021/12/07 00:39:16;;;;;;;40.88;14.25;;;1.50;99.90;;;;;;5114931;28;20039;-77
2021/12/07 00:41:42;;;;;;;43.72;14.25;;;1.50;99.90;;;;;;5114946;28;20105;-78
2021/12/07 00:44:08;;;;;;;39.78;14.13;;;1.40;99.90;;;;;;5115683;28;20058;-79
2021/12/07 00:46:35;;;;;;;41.03;14.57;;;1.40;99.90;;;;;;5117604;28;20051;-79
2021/12/07 00:49:01;;;;;;;40.40;14.75;;;1.40;99.90;;;;;;5116492;28;20080;-79
2021/12/07 00:51:27;;;;;;;40.83;14.57;;;1.30;99.90;;;;;;5115558;28;20050;-79
2021/12/07 00:53:53;;;;;;;38.65;14.27;;;1.50;99.90;;;;;;5098489;28;20047;-79
2021/12/07 00:56:21;;;;;;;41.97;15.45;;;1.20;99.90;;;;;;5115098;28;20243;-78
2021/12/07 00:58:47;;;;;;;;;;;1.30;99.90;;;;;;5114616;28;20067;-77
2021/12/07 01:01:14;;;;;;;42.10;14.18;;;1.20;99.90;;;;;;5114678;28;19957;-79
2021/12/07 01:03:42;;;;;;;39.17;13.88;;;1.20;99.90;;;;;;5096084;28;20055;-78
2021/12/07 01:06:43;;;;;;;42.83;15.30;;;1.30;99.90;;;;;;5114208;28;20087;-78
2021/12/07 01:25:43;;;;;;;38.03;12.90;;;1.20;99.90;;;;;;5096845;28;20051;-75
2021/12/07 01:28:21;;;;;;;35.55;12.65;;;1.20;99.90;;;;;;5096219;28;20118;-76
2021/12/07 01:30:54;;;;;;;44.22;14.90;;;1.20;99.90;;;;;;5079850;28;20131;-76
2021/12/07 01:59:53;;;;;;;38.65;13.98;;;1.30;99.90;;;;;;5094890;28;20510;-75
2021/12/07 02:02:21;;;;;;;38.58;14.20;;;1.20;99.90;;;;;;5095379;28;20048;-76
2021/12/07 02:04:47;;;;;;;36.88;13.70;;;1.20;99.90;;;;;;5113095;28;20485;-75
2021/12/07 02:07:14;;;;;;;46.22;16.33;;;1.20;99.90;;;;;;5094826;28;20047;-76
2021/12/07 02:09:44;;;;;;;39.42;13.82;;;1.20;99.90;;;;;;5113270;28;20104;-75
2021/12/07 02:12:12;;;;;;;42.72;13.50;;;1.20;99.90;;;;;;5113230;28;20203;-76
2021/12/07 02:14:38;;;;;;;42.83;15.27;;;1.20;99.90;;;;;;5113136;28;20043;-76
2021/12/07 02:17:10;;;;;;;42.65;15.40;;;1.20;99.90;;;;;;5113767;28;20456;-75
2021/12/07 02:19:37;;;;;;;39.05;13.88;;;1.20;99.90;;;;;;5078212;28;20109;-77
2021/12/07 02:22:03;;;;;;;43.23;15.47;;;1.20;99.90;;;;;;5113387;28;20360;-76
2021/12/07 02:24:29;;;;;;;49.42;16.60;;;1.20;99.90;;;;;;5112877;28;20048;-77
2021/12/07 02:26:56;;;;;;;41.40;14.57;;;1.10;99.90;;;;;;5112765;28;20039;-75
2021/12/07 02:29:23;;;;;;;43.30;13.85;;;1.30;99.90;;;;;;5113133;28;20170;-78
2021/12/07 02:31:51;;;;;;;40.10;14.15;;;1.20;99.90;;;;;;5112881;28;20531;-76
2021/12/07 02:34:18;;;;;;;41.72;14.75;;;1.30;99.90;;;;;;5113782;28;20175;-77
2021/12/07 02:36:43;;;;;;;42.40;15.23;;;1.20;99.90;;;;;;5113794;28;20047;-76
2021/12/07 02:39:11;;;;;;;39.72;13.98;;;1.20;99.90;;;;;;5113159;28;20104;-77
2021/12/07 02:41:38;;;;;;;36.88;12.55;;;1.20;99.90;;;;;;5114240;28;20070;-78
2021/12/07 02:44:06;;;;;;;41.78;14.27;;;1.20;99.90;;;;;;5112995;28;20047;-79
2021/12/07 02:46:37;;;;;;;40.00;14.30;;;1.20;99.90;;;;;;5095238;28;20048;-77
2021/12/07 02:49:07;;;;;;;40.08;13.68;;;1.20;99.90;;;;;;5077808;28;20058;-79
2021/12/07 02:51:34;;;;;;;40.03;13.30;;;1.20;99.90;;;;;;5095284;28;20244;-76
2021/12/07 02:54:00;;;;;;;35.35;13.25;;;1.20;99.90;;;;;;5094671;28;20157;-76
2021/12/07 02:56:27;;;;;;;36.40;12.68;;;1.00;99.90;;;;;;5094518;28;20087;-76
2021/12/07 02:58:58;;;;;;;36.58;12.23;;;1.20;99.90;;;;;;5111944;28;20035;-75
2021/12/07 03:01:28;;;;;;;43.90;13.88;;;1.30;99.90;;;;;;5112682;28;20047;-75
2021/12/07 03:04:04;;;;;;;39.35;12.95;;;1.20;99.90;;;;;;5113256;28;20074;-76
2021/12/07 03:07:01;;;;;;;41.05;14.27;;;1.20;99.90;;;;;;5095461;28;20073;-78
2021/12/07 03:09:49;;;;;;;38.72;12.45;;;1.20;99.90;;;;;;5113351;28;20089;-78
2021/12/07 03:26:11;;;;;;;32.78;11.75;;;1.20;99.90;;;;;;5113337;28;20052;-76
2021/12/07 03:28:48;;;;;;;34.53;12.10;;;1.20;99.90;;;;;;5094512;28;20047;-76
2021/12/07 03:31:15;;;;;;;36.20;12.20;;;1.20;99.90;;;;;;5077679;28;20051;-76
2021/12/07 03:33:41;;;;;;;;;;;1.30;99.90;;;;;;5115922;28;20070;-77
2021/12/07 03:36:09;;;;;;;36.40;12.48;;;1.30;99.90;;;;;;5098089;28;19928;-75
2021/12/07 03:38:35;;;;;;;36.38;12.32;;;1.30;99.90;;;;;;5116907;28;20152;-77
2021/12/07 03:41:02;;;;;;;37.40;12.63;;;1.30;99.90;;;;;;5097702;28;20036;-76
2021/12/07 03:43:28;;;;;;;39.55;12.77;;;1.30;99.90;;;;;;5115415;28;20066;-76
2021/12/07 03:45:54;;;;;;;36.22;11.60;;;1.40;99.90;;;;;;5097591;28;20051;-76
2021/12/07 03:48:20;;;;;;;35.28;12.88;;;1.40;99.90;;;;;;5097664;28;20134;-75
2021/12/07 03:50:46;;;;;;;33.65;11.32;;;1.30;99.90;;;;;;5115289;28;20036;-76
2021/12/07 03:53:13;;;;;;;31.63;10.82;;;1.20;99.90;;;;;;5115853;28;20046;-76
2021/12/07 03:55:39;;;;;;;;;;;1.20;99.90;;;;;;5116177;28;20192;-76
2021/12/07 03:58:06;;;;;;;30.08;10.45;;;1.10;99.90;;;;;;5115838;28;19927;-75
2021/12/07 04:00:35;;;;;;;33.55;11.23;;;1.10;99.90;;;;;;5097172;28;20131;-75
2021/12/07 04:03:07;;;;;;;40.25;12.45;;;1.00;99.90;;;;;;5115598;28;20074;-76
2021/12/07 04:05:33;;;;;;;33.80;11.07;;;1.00;99.90;;;;;;5115954;28;20126;-75
2021/12/07 04:07:59;;;;;;;36.10;11.23;;;1.00;99.90;;;;;;5097130;28;20055;-74
2021/12/07 04:10:25;;;;;;;32.65;10.27;;;1.00;99.90;;;;;;5097248;28;20048;-73
2021/12/07 04:12:52;;;;;;;40.60;11.70;;;0.90;99.90;;;;;;5097031;28;20094;-75
2021/12/07 04:15:19;;;;;;;38.38;11.25;;;1.10;99.90;;;;;;5115552;28;20066;-75
2021/12/07 04:17:45;;;;;;;35.17;11.60;;;1.00;99.90;;;;;;5097012;28;20040;-75
2021/12/07 04:20:13;;;;;;;36.35;11.15;;;1.40;99.90;;;;;;5115768;28;20063;-75
2021/12/07 04:22:39;;;;;;;31.95;11.65;;;1.10;99.90;;;;;;5115077;28;20469;-75
2021/12/07 04:25:09;;;;;;;37.05;11.88;;;1.40;99.90;;;;;;5115709;28;20422;-75
2021/12/07 04:27:38;;;;;;;35.88;12.20;;;1.30;99.90;;;;;;5114704;28;20069;-76
2021/12/07 04:30:07;;;;;;;35.60;11.60;;;1.30;99.90;;;;;;5114982;28;20046;-76
2021/12/07 04:32:33;;;;;;;37.13;12.18;;;1.40;99.90;;;;;;5096349;28;20105;-75
2021/12/07 04:34:59;;;;;;;34.92;11.60;;;1.40;99.90;;;;;;5097141;28;20044;-75
2021/12/07 04:37:24;;;;;;;35.15;11.73;;;1.40;99.90;;;;;;5114693;28;20044;-75
2021/12/07 04:39:50;;;;;;;37.30;11.48;;;1.50;99.90;;;;;;5096954;28;20054;-76
2021/12/07 04:42:16;;;;;;;37.95;11.88;;;1.60;99.90;;;;;;5114599;28;20047;-76
2021/12/07 04:44:50;;;;;;;35.00;11.93;;;1.50;99.90;;;;;;5094790;28;20444;-74
2021/12/07 04:47:24;;;;;;;30.92;10.65;;;1.60;99.90;;;;;;5080924;28;20119;-75
2021/12/07 04:58:14;;;;;;;32.42;10.65;;;1.30;99.90;;;;;;5114658;28;20051;-74
2021/12/07 05:00:39;;;;;;;35.05;11.27;;;1.20;99.90;;;;;;5096306;28;20055;-75
2021/12/07 05:03:06;;;;;;;33.53;10.93;;;1.40;99.90;;;;;;5079644;28;20063;-74
2021/12/07 05:05:37;;;;;;;36.85;11.68;;;1.10;99.90;;;;;;5114242;28;20078;-75
2021/12/07 05:08:07;;;;;;;37.65;11.20;;;1.10;99.90;;;;;;5114398;28;20051;-74
2021/12/07 05:11:00;;;;;;;35.63;11.82;;;1.10;99.90;;;;;;5114862;28;20388;-75
2021/12/07 05:13:31;;;;;;;34.22;11.10;;;1.00;99.90;;;;;;5095770;28;20054;-74
2021/12/07 05:18:54;;;;;;;31.02;10.80;;;0.80;99.90;;;;;;5079713;28;20089;-74
2021/12/07 05:24:10;;;;;;;28.48;9.50;;;0.80;99.90;;;;;;5114091;28;20087;-74
2021/12/07 05:37:57;;;;;;;33.30;9.95;;;0.80;99.90;;;;;;5095970;28;20135;-75
2021/12/07 05:40:33;;;;;;;38.25;10.88;;;0.80;99.90;;;;;;5078250;28;20507;-74
2021/12/07 05:43:00;;;;;;;36.10;10.82;;;0.80;99.90;;;;;;5114089;28;20039;-73
2021/12/07 05:45:33;;;;;;;30.30;10.02;;;0.80;99.90;;;;;;5095306;28;20048;-74
2021/12/07 05:48:03;;;;;;;37.22;11.55;;;0.80;99.90;;;;;;5095384;28;20078;-73
2021/12/07 05:50:32;;;;;;;38.67;10.23;;;0.70;99.90;;;;;;5114296;28;20051;-75
2021/12/07 05:52:58;;;;;;;48.35;12.77;;;0.70;99.90;;;;;;5095702;28;20520;-74
2021/12/07 05:55:25;;;;;;;38.90;11.57;;;0.80;99.90;;;;;;5113564;28;20044;-74
2021/12/07 05:57:51;;;;;;;41.83;11.50;;;0.70;99.90;;;;;;5078155;28;20285;-75
2021/12/07 06:00:25;;;;;;;37.05;11.02;;;0.70;99.90;;;;;;5092074;28;20426;-75
2021/12/07 06:02:53;;;;;;;36.58;10.38;;;0.70;99.90;;;;;;5092894;28;20116;-74
2021/12/07 06:05:20;;;;;;;35.90;10.43;;;0.80;99.90;;;;;;5093992;28;20477;-74
2021/12/07 06:07:45;;;;;;;37.40;10.73;;;0.70;99.90;;;;;;5092967;28;20127;-73
2021/12/07 06:10:11;;;;;;;39.28;11.95;;;0.80;99.90;;;;;;5094965;28;20141;-74
2021/12/07 06:12:37;;;;;;;41.42;11.43;;;0.80;99.90;;;;;;5094413;28;20112;-74
2021/12/07 06:15:03;;;;;;;40.53;12.70;;;0.70;99.90;;;;;;5092894;28;20139;-74
2021/12/07 06:17:29;;;;;;;38.88;10.57;;;0.80;99.90;;;;;;5094556;28;20403;-74
2021/12/07 06:19:55;;;;;;;42.33;10.88;;;0.60;99.90;;;;;;5094963;28;20127;-74
2021/12/07 06:22:21;;;;;;;41.08;11.55;;;0.70;99.90;;;;;;5094270;28;20040;-75
2021/12/07 06:24:46;;;;;;;43.50;11.30;;;0.70;99.90;;;;;;5092985;28;20083;-75
2021/12/07 06:27:12;;;;;;;39.08;10.63;;;0.70;99.90;;;;;;5096082;28;20102;-75
2021/12/07 06:29:39;;;;;;;35.25;9.95;;;0.60;99.90;;;;;;5096360;28;20063;-74
2021/12/07 06:32:06;;;;;;;45.88;12.68;;;0.60;99.90;;;;;;5095836;28;20028;-74
2021/12/07 06:34:32;;;;;;;38.42;11.10;;;0.60;99.90;;;;;;5098793;28;20028;-74
2021/12/07 06:36:59;;;;;;;42.85;11.25;;;0.60;99.90;;;;;;5097402;28;20536;-74
2021/12/07 06:39:25;;;;;;;43.15;11.75;;;0.60;99.90;;;;;;5095538;28;20506;-74
2021/12/07 06:41:51;;;;;;;35.72;11.20;;;0.60;99.90;;;;;;5077765;28;20040;-74
2021/12/07 06:44:16;;;;;;;44.80;10.68;;;0.50;99.90;;;;;;5076694;28;20110;-73
2021/12/07 06:46:42;;;;;;;40.35;11.85;;;0.50;99.90;;;;;;5092729;28;20046;-75
2021/12/07 06:49:08;;;;;;;47.30;11.20;;;0.60;99.90;;;;;;5094289;28;20062;-73
2021/12/07 06:51:34;;;;;;;51.33;11.93;;;0.50;99.90;;;;;;5092661;28;20476;-75
2021/12/07 06:53:59;;;;;;;37.88;11.18;;;0.40;99.90;;;;;;5093456;28;20055;-74
2021/12/07 06:56:28;;;;;;;48.10;12.65;;;0.50;99.90;;;;;;5093944;28;20040;-74
2021/12/07 06:58:54;;;;;;;34.88;10.57;;;0.50;99.90;;;;;;5094972;28;20101;-73
2021/12/07 07:01:19;;;;;;;43.40;10.95;;;0.40;99.90;;;;;;5087913;28;20407;-74
2021/12/07 07:03:45;;;;;;;38.88;11.38;;;0.40;99.90;;;;;;5096262;28;20044;-75
2021/12/07 07:06:11;;;;;;;33.67;10.85;;;0.40;99.90;;;;;;5094615;28;20445;-73
2021/12/07 07:08:37;;;;;;;46.22;12.55;;;0.30;99.90;;;;;;5097523;28;20071;-73
2021/12/07 07:11:04;;;;;;;41.75;11.40;;;0.30;99.90;;;;;;5081800;28;20078;-74
2021/12/07 07:13:32;;;;;;;46.95;12.00;;;0.30;99.90;;;;;;5099731;28;20052;-73
2021/12/07 07:15:59;;;;;;;42.17;10.50;;;0.50;99.90;;;;;;5098982;28;20076;-73
2021/12/07 07:18:25;;;;;;;40.03;10.38;;;0.30;99.90;;;;;;5098724;28;20040;-73
2021/12/07 07:20:51;;;;;;;45.78;11.13;;;0.30;99.90;;;;;;5096016;28;20043;-73
2021/12/07 07:23:16;;;;;;;38.30;11.35;;;0.30;99.90;;;;;;5095798;28;20051;-72
2021/12/07 07:25:42;;;;;;;44.42;11.73;;;0.40;99.90;;;;;;5094626;28;20120;-73
2021/12/07 07:28:08;;;;;;;44.13;11.18;;;0.50;99.90;;;;;;5078501;28;20352;-74
2021/12/07 07:30:34;;;;;;;47.13;11.07;;;0.40;99.90;;;;;;5096325;28;20048;-74
2021/12/07 07:33:00;;;;;;;44.22;12.50;;;0.40;99.90;;;;;;5094940;28;20048;-74
2021/12/07 07:35:26;;;;;;;44.53;11.50;;;0.60;99.90;;;;;;5094696;28;20055;-74
2021/12/07 07:37:52;;;;;;;42.13;11.52;;;0.40;99.90;;;;;;5094588;28;20050;-74
2021/12/07 07:40:20;;;;;;;47.55;11.40;;;0.30;99.90;;;;;;5096106;28;20387;-73
2021/12/07 07:42:47;;;;;;;38.85;10.63;;;0.40;99.90;;;;;;5095570;28;20126;-73
2021/12/07 07:45:13;;;;;;;45.92;11.18;;;0.30;99.90;;;;;;5093999;28;20059;-73
2021/12/07 07:47:39;;;;;;;35.53;10.13;;;0.40;99.90;;;;;;5095965;28;20075;-73
2021/12/07 07:50:07;;;;;;;32.03;9.50;;;0.40;99.90;;;;;;5096422;28;20371;-74
2021/12/07 07:52:33;;;;;;;36.22;9.45;;;0.40;99.90;;;;;;5095669;28;20100;-74
2021/12/07 07:54:59;;;;;;;32.28;9.02;;;0.50;99.90;;;;;;5095554;28;20048;-74
2021/12/07 07:57:24;;;;;;;33.95;9.32;;;0.40;99.90;;;;;;5077238;28;20102;-72
2021/12/07 07:59:50;;;;;;;39.65;9.02;;;0.40;99.90;;;;;;5094198;28;20040;-72
2021/12/07 08:02:16;;;;;;;41.75;8.98;;;0.60;99.90;;;;;;5093701;28;20074;-72
2021/12/07 08:04:43;;;;;;;41.05;10.43;;;0.40;99.90;;;;;;5095345;28;20454;-71
2021/12/07 08:07:09;;;;;;;34.95;9.02;;;0.50;99.90;;;;;;5094413;28;20055;-71
2021/12/07 08:09:35;;;;;;;33.50;8.32;;;0.50;99.90;;;;;;5095098;28;20051;-70
2021/12/07 08:12:00;;;;;;;39.17;9.23;;;0.50;99.90;;;;;;5077563;28;20065;-71
2021/12/07 08:14:26;;;;;;;35.63;9.52;;;0.50;99.90;;;;;;5095344;28;20137;-70
2021/12/07 08:16:52;;;;;;;37.10;9.85;;;0.60;99.90;;;;;;5095039;28;20101;-71
2021/12/07 08:19:18;;;;;;;42.45;9.85;;;0.60;99.90;;;;;;5094881;28;20044;-71
2021/12/07 08:21:44;;;;;;;39.85;10.25;;;0.60;99.90;;;;;;5097033;28;20079;-70
2021/12/07 08:24:10;;;;;;;53.30;10.32;;;0.60;99.90;;;;;;5096319;28;20040;-72
2021/12/07 08:26:35;;;;;;;43.58;9.57;;;0.60;99.90;;;;;;5077292;28;20094;-72
2021/12/07 08:29:01;;;;;;;46.42;11.07;;;0.70;99.90;;;;;;5094677;28;20040;-71
2021/12/07 08:31:29;;;;;;;64.85;13.65;;;0.70;99.90;;;;;;5110606;28;20104;-71
2021/12/07 08:33:54;;;;;;;59.67;15.25;;;0.90;99.90;;;;;;5094533;28;20570;-71
2021/12/07 08:36:20;;;;;;;79.40;17.48;;;1.10;99.90;;;;;;5095079;28;20075;-70
2021/12/07 08:38:49;;;;;;;87.05;19.25;;;1.20;99.90;;;;;;5094678;28;20484;-70
2021/12/07 08:41:15;;;;;;;68.40;17.77;;;1.10;99.90;;;;;;5093829;28;20506;-71
2021/12/07 08:43:42;;;;;;;59.35;15.77;;;1.30;99.90;;;;;;5076567;28;20048;-71
2021/12/07 08:46:12;;;;;;;50.63;15.07;;;1.10;99.90;;;;;;5092917;28;20101;-73
2021/12/07 08:48:39;;;;;;;56.47;15.52;;;1.10;99.90;;;;;;5076489;28;20458;-73
2021/12/07 08:51:06;;;;;;;41.90;12.03;;;1.10;99.90;;;;;;5093954;28;20087;-73
2021/12/07 08:53:33;;;;;;;;;;;1.10;99.90;;;;;;5093177;28;20044;-73
2021/12/07 09:01:31;;;;;;;39.95;10.88;;;1.30;99.90;;;;;;5107897;28;20082;-73
2021/12/07 09:03:58;;;;;;;44.17;10.13;;;1.20;99.90;;;;;;5096627;28;20054;-75
2021/12/07 09:06:25;;;;;;;37.80;9.27;;;1.40;99.90;;;;;;5114445;28;20043;-73
2021/12/07 09:08:51;;;;;;;43.60;9.90;;;1.40;99.90;;;;;;5095918;28;20051;-74
2021/12/07 09:11:17;;;;;;;44.05;10.32;;;1.50;99.90;;;;;;5096008;28;20044;-74
2021/12/07 09:13:43;;;;;;;40.05;9.13;;;1.50;99.90;;;;;;5113995;28;20399;-76
2021/12/07 09:16:11;;;;;;;42.10;9.38;;;1.50;99.90;;;;;;5114192;28;20075;-75
2021/12/07 09:18:37;;;;;;;45.45;9.02;;;1.50;99.90;;;;;;5096277;28;20039;-76
2021/12/07 09:21:03;;;;;;;42.00;8.45;;;1.70;99.90;;;;;;5114245;28;20047;-76
2021/12/07 09:23:30;;;;;;;34.38;7.75;;;1.90;99.90;;;;;;5114117;28;20120;-75
2021/12/07 09:25:56;;;;;;;35.40;7.70;;;1.80;99.90;;;;;;5113566;28;20047;-75
2021/12/07 09:28:22;;;;;;;30.88;8.18;;;1.90;99.90;;;;;;5113437;28;20059;-75
2021/12/07 09:30:52;;;;;;;36.77;7.90;;;1.90;99.90;;;;;;5112933;28;20040;-75
2021/12/07 09:33:23;;;;;;;34.55;8.55;;;1.90;99.90;;;;;;5113264;28;20043;-75
2021/12/07 09:35:51;;;;;;;44.83;8.48;;;2.10;99.90;;;;;;5113875;28;20050;-75
2021/12/07 09:38:18;;;;;;;37.75;7.90;;;2.10;99.90;;;;;;5113729;28;20032;-74
2021/12/07 09:40:45;;;;;;;39.47;8.38;;;2.30;99.90;;;;;;5095439;28;20051;-76
2021/12/07 09:43:12;;;;;;;32.80;7.88;;;2.10;99.90;;;;;;5095037;28;20043;-76
2021/12/07 09:45:38;;;;;;;28.83;7.28;;;2.20;99.90;;;;;;5078764;28;20077;-74
2021/12/07 09:48:06;;;;;;;30.17;7.35;;;2.30;99.90;;;;;;5078680;28;20433;-76
2021/12/07 09:50:36;;;;;;;33.33;7.43;;;2.30;99.90;;;;;;5113092;28;20040;-73
2021/12/07 09:53:04;;;;;;;33.85;8.50;;;2.40;99.90;;;;;;5078047;28;20043;-76
2021/12/07 09:55:29;;;;;;;30.60;7.75;;;2.40;99.90;;;;;;5113294;28;20083;-74
2021/12/07 09:57:56;;;;;;;33.20;7.72;;;2.40;99.90;;;;;;5094956;28;20531;-75
2021/12/07 10:00:24;;;;;;;20.25;5.03;;;2.40;99.90;;;;;;5113053;28;20055;-74
2021/12/07 10:02:51;;;;;;;33.60;7.28;;;2.40;99.90;;;;;;5094465;28;20134;-73
2021/12/07 10:05:19;;;;;;;35.53;7.93;;;2.60;99.90;;;;;;5094604;28;20083;-74
2021/12/07 10:07:46;;;;;;;26.65;7.05;;;2.40;99.90;;;;;;5095068;28;20040;-75
2021/12/07 10:10:41;;;;;;;36.13;8.23;;;2.40;99.90;;;;;;5095407;28;20078;-75
2021/12/07 10:13:08;;;;;;;26.98;7.63;;;2.40;99.90;;;;;;5110934;28;20055;-74
2021/12/07 10:15:35;;;;;;;24.85;7.38;;;2.40;99.90;;;;;;5112977;28;20468;-75
2021/12/07 10:18:07;;;;;;;30.17;6.88;;;2.30;99.90;;;;;;5094119;28;20486;-76
2021/12/07 10:20:41;;;;;;;30.25;7.38;;;2.40;99.90;;;;;;5094732;28;20135;-75
2021/12/07 10:23:21;;;;;;;31.02;7.45;;;2.50;99.90;;;;;;5113035;28;20048;-73
2021/12/07 10:25:56;;;;;;;32.50;7.63;;;2.60;99.90;;;;;;5112897;28;20040;-73
2021/12/07 10:28:35;;;;;;;42.45;9.50;;;2.80;99.90;;;;;;5094454;28;20065;-74
2021/12/07 10:31:06;;;;;;;28.30;6.97;;;2.80;99.90;;;;;;5112761;28;20363;-76
2021/12/07 10:33:54;;;;;;;35.00;8.73;;;2.80;99.90;;;;;;5078086;28;20413;-74
2021/12/07 10:36:26;;;;;;;35.13;7.13;;;2.90;99.90;;;;;;5112613;28;20047;-74
2021/12/07 10:39:00;;;;;;;36.75;7.85;;;2.90;99.90;;;;;;5095025;28;20115;-74
2021/12/07 10:41:26;;;;;;;39.75;8.13;;;3.00;99.90;;;;;;5100826;28;20487;-71
2021/12/07 10:43:58;;;;;;;30.13;9.43;;;3.00;99.90;;;;;;5106388;28;20123;-74
2021/12/07 10:46:27;;;;;;;29.23;7.80;;;3.10;99.90;;;;;;5125302;28;20130;-73
2021/12/07 10:49:10;;;;;;;39.90;8.48;;;3.10;99.90;;;;;;5107945;28;20134;-73
2021/12/07 10:51:37;;;;;;;29.05;8.05;;;3.10;99.90;;;;;;5123644;28;20455;-74
2021/12/07 10:54:04;;;;;;;26.88;7.65;;;3.20;99.90;;;;;;5125096;28;20106;-75
2021/12/07 10:56:31;;;;;;;27.75;8.07;;;3.20;99.90;;;;;;5124135;28;20147;-74
2021/12/07 10:59:08;;;;;;;34.70;8.35;;;3.30;99.90;;;;;;5123193;28;20039;-73
2021/12/07 11:01:35;;;;;;;35.05;8.95;;;3.30;99.90;;;;;;5105785;28;20048;-74
2021/12/07 11:04:22;;;;;;;31.67;8.35;;;3.30;99.90;;;;;;5123409;28;20134;-74
2021/12/07 11:07:07;;;;;;;;;;;3.40;99.90;;;;;;5125078;28;20055;-74
2021/12/07 11:12:45;;;;;;;31.20;7.22;;;3.40;99.90;;;;;;5124241;28;20147;-74
2021/12/07 11:15:15;;;;;;;28.08;7.70;;;3.50;99.90;;;;;;5105559;28;20047;-74
2021/12/07 11:17:42;;;;;;;27.27;7.95;;;3.50;99.90;;;;;;5120377;28;20142;-74
2021/12/07 11:20:08;;;;;;;31.45;8.30;;;3.60;99.90;;;;;;5125832;28;20047;-74
2021/12/07 11:22:38;;;;;;;32.33;9.23;;;3.50;99.90;;;;;;5128987;28;20036;-74
2021/12/07 11:25:05;;;;;;;30.13;7.68;;;3.60;99.90;;;;;;5126959;28;20081;-75
2021/12/07 11:30:25;;;;;;;31.10;8.07;;;3.70;99.90;;;;;;5125339;28;20067;-73
2021/12/07 11:32:55;;;;;;;32.50;8.52;;;3.70;99.90;;;;;;5089925;28;20062;-73
2021/12/07 11:35:28;;;;;;;26.90;8.63;;;4.40;99.90;;;;;;5123908;28;20127;-73
2021/12/07 11:38:01;;;;;;;26.77;9.20;;;3.80;99.90;;;;;;5123709;28;20471;-74
2021/12/07 11:40:30;;;;;;;28.80;8.80;;;3.90;99.90;;;;;;5123734;28;20039;-74
2021/12/07 11:42:56;;;;;;;32.58;8.35;;;3.90;99.90;;;;;;5124628;28;20035;-74
2021/12/07 11:45:30;;;;;;;38.75;9.45;;;3.80;99.90;;;;;;5106952;28;20054;-73
2021/12/07 11:48:01;;;;;;;29.33;9.07;;;4.00;99.90;;;;;;5107131;28;20154;-74
2021/12/07 11:50:43;;;;;;;26.20;8.32;;;4.00;99.90;;;;;;5126108;28;20137;-73
2021/12/07 11:53:16;;;;;;;27.90;8.15;;;4.00;99.90;;;;;;5108136;28;20061;-75
2021/12/07 11:55:48;;;;;;;28.42;9.15;;;4.00;99.90;;;;;;5127429;28;20103;-73
2021/12/07 11:58:15;;;;;;;31.95;8.85;;;4.10;99.90;;;;;;5127226;28;20130;-73
2021/12/07 12:00:46;;;;;;;38.45;9.18;;;4.10;99.90;;;;;;5109539;28;20485;-73
2021/12/07 12:03:15;;;;;;;33.63;8.25;;;4.20;99.90;;;;;;5113787;28;20047;-75
2021/12/07 12:05:44;;;;;;;25.88;8.15;;;4.10;99.90;;;;;;5130598;28;20090;-74
2021/12/07 12:08:11;;;;;;;36.05;8.93;;;4.30;99.90;;;;;;5110248;28;20047;-75
2021/12/07 12:10:44;;;;;;;27.02;8.10;;;4.30;99.90;;;;;;5093268;28;20128;-75
2021/12/07 12:13:55;;;;;;;30.58;8.93;;;4.30;99.90;;;;;;5091941;28;20059;-74
2021/12/07 12:16:41;;;;;;;30.23;8.95;;;4.40;99.90;;;;;;5109002;28;20047;-75
2021/12/07 12:19:16;;;;;;;29.05;8.13;;;4.40;99.90;;;;;;5107950;28;20052;-75
2021/12/07 12:22:30;;;;;;;24.15;7.30;;;4.50;99.90;;;;;;5109247;28;20058;-75
2021/12/07 12:25:00;;;;;;;38.80;8.65;;;4.40;99.90;;;;;;5100727;28;20059;-75
2021/12/07 12:27:33;;;;;;;35.40;7.53;;;4.40;99.90;;;;;;5129130;28;20039;-75
2021/12/07 12:30:05;;;;;;;26.45;8.10;;;4.40;99.90;;;;;;5129373;28;20180;-75
2021/12/07 12:32:36;;;;;;;35.33;8.55;;;4.50;99.90;;;;;;5111002;28;20036;-75
2021/12/07 12:35:05;;;;;;;24.23;7.30;;;4.40;99.90;;;;;;5111587;28;20391;-75
2021/12/07 12:37:32;;;;;;;21.65;7.28;;;4.40;99.90;;;;;;5110724;28;20039;-75
2021/12/07 12:40:01;;;;;;;30.17;9.05;;;4.40;99.90;;;;;;5093544;28;20512;-75
2021/12/07 12:42:40;;;;;;;30.42;8.50;;;4.50;99.90;;;;;;5109310;28;20059;-75
2021/12/07 12:45:22;;;;;;;32.33;7.70;;;4.50;99.90;;;;;;5124848;28;20044;-74
2021/12/07 12:48:11;;;;;;;20.85;7.70;;;4.40;99.90;;;;;;5120839;28;20051;-74
2021/12/07 12:50:53;;;;;;;31.33;8.63;;;4.50;99.90;;;;;;5107949;28;20079;-73
2021/12/07 12:53:31;;;;;;;30.23;8.88;;;4.50;99.90;;;;;;5104713;28;20062;-75
2021/12/07 12:56:15;;;;;;;30.40;8.68;;;4.50;99.90;;;;;;5104869;28;20162;-74
2021/12/07 12:58:45;;;;;;;27.45;8.95;;;4.50;99.90;;;;;;5123894;28;20083;-74
2021/12/07 13:01:17;;;;;;;25.42;9.85;;;4.50;99.90;;;;;;5104902;28;20056;-73
2021/12/07 13:03:53;;;;;;;40.05;9.80;;;4.50;99.90;;;;;;5123793;28;20043;-74
2021/12/07 13:06:44;;;;;;;28.10;8.30;;;4.50;99.90;;;;;;5122510;28;20039;-75
2021/12/07 13:09:20;;;;;;;29.80;9.90;;;4.50;99.90;;;;;;5123819;28;20048;-74
2021/12/07 13:12:27;;;;;;;34.28;9.00;;;4.40;99.90;;;;;;5124520;28;20120;-74
2021/12/07 13:14:57;;;;;;;30.33;9.73;;;4.50;99.90;;;;;;5040680;28;20242;-74
2021/12/07 13:17:38;;;;;;;36.08;10.98;;;4.40;99.90;;;;;;5091441;28;20051;-75
2021/12/07 13:20:19;;;;;;;32.67;9.88;;;4.40;99.90;;;;;;5122549;28;20156;-74
2021/12/07 13:22:53;;;;;;;34.80;10.95;;;4.40;99.90;;;;;;5105422;28;20054;-75
2021/12/07 13:25:33;;;;;;;38.88;11.60;;;4.40;99.90;;;;;;5123440;28;20156;-75
2021/12/07 13:28:26;;;;;;;37.00;11.80;;;4.40;99.90;;;;;;5108178;28;20448;-74
2021/12/07 13:31:12;;;;;;;32.90;11.05;;;4.40;99.90;;;;;;5126969;28;20086;-73
2021/12/07 13:33:53;;;;;;;34.97;12.20;;;4.40;99.90;;;;;;5124929;28;20060;-73
2021/12/07 13:36:41;;;;;;;35.13;11.60;;;4.40;99.90;;;;;;5106700;28;20481;-74
2021/12/07 13:39:12;;;;;;;31.75;11.55;;;4.40;99.90;;;;;;5125734;28;20051;-74
2021/12/07 13:42:00;;;;;;;32.55;11.63;;;4.40;99.90;;;;;;5107657;28;20039;-74
2021/12/07 13:44:34;;;;;;;31.60;10.60;;;4.30;99.90;;;;;;5124372;28;20150;-73
2021/12/07 13:47:05;;;;;;;34.30;11.75;;;4.30;99.90;;;;;;5109078;28;20517;-74
2021/12/07 13:49:33;;;;;;;41.50;11.88;;;4.30;99.90;;;;;;5091835;28;20043;-74
2021/12/07 13:52:00;;;;;;;36.53;10.93;;;4.20;99.90;;;;;;5105891;28;20062;-74
2021/12/07 13:54:26;;;;;;;34.30;12.00;;;4.20;99.90;;;;;;5106534;28;20107;-74
2021/12/07 13:56:53;;;;;;;39.00;13.52;;;4.20;99.90;;;;;;5106541;28;20292;-74
2021/12/07 13:59:23;;;;;;;39.10;12.18;;;4.20;99.90;;;;;;5089930;28;20138;-75
2021/12/07 14:01:56;;;;;;;34.53;12.27;;;4.20;99.90;;;;;;5089079;28;20063;-75
2021/12/07 14:04:28;;;;;;;37.42;12.52;;;4.20;99.90;;;;;;5104309;28;20126;-76
2021/12/07 14:06:54;;;;;;;33.20;11.30;;;4.10;99.90;;;;;;5099093;28;20035;-74
2021/12/07 14:09:20;;;;;;;43.03;12.57;;;4.10;99.90;;;;;;5102706;28;20075;-76
2021/12/07 14:11:58;;;;;;;44.35;12.73;;;4.10;99.90;;;;;;5129822;28;20023;-73
2021/12/07 14:14:26;;;;;;;36.40;11.68;;;4.10;99.90;;;;;;5102865;28;20048;-77
2021/12/07 14:16:57;;;;;;;40.78;13.13;;;4.00;99.90;;;;;;5079578;28;20047;-74
2021/12/07 14:19:23;;;;;;;60.72;13.52;;;4.10;99.90;;;;;;5126754;28;20070;-76
2021/12/07 14:21:50;;;;;;;46.70;13.40;;;4.00;99.90;;;;;;5110179;28;20058;-74
2021/12/07 14:24:19;;;;;;;49.20;13.77;;;4.00;99.90;;;;;;5112050;28;20051;-75
2021/12/07 14:26:46;;;;;;;35.55;11.73;;;3.90;99.90;;;;;;5132530;28;20067;-75
2021/12/07 14:29:21;;;;;;;35.30;14.77;;;3.80;99.90;;;;;;5109277;28;20047;-75
2021/12/07 14:31:56;;;;;;;37.25;12.52;;;3.90;99.90;;;;;;5126003;28;20063;-74